Rex, Georgia
Current Conditions -  °F | °C
As of 10:52 PM on Friday 31 Oct 2014 (Local Time) from KATL Reporting Station
Overcast Overcast  
Wind Chill: 31°   Ceiling: 4500
Heat Index: 41°   Visibility: 10mi
Dew Point: 33°   Wind: 24mph
Humidity: 73%   Direction: 330°NNW
Pressure: 29.98"   Gusts: 32mph
Location:  33.59°N, 84.27°W
Report Text: KATL 010252Z 33021G28KT 10SM FEW015 SCT028 OVC045 05/01 A2998 RMK AO2 PK WND 34040/0201 RAB0154E21 SLP153 P0001 60001 T00500006 53024 $
Loading
Personal Weather Stations






























Interactive Weather Map
Tropical Storm Tracking
New forecast layout! Learn more

10-Day Weather Forecast

Advertisements
Track Severe Weather on mobile